Terminal Aerodrome Forecast
Issued by NWS

Home | Current Version | Previous Version | Text Only | Print | Product List | Glossary On
Versions: 1 2 3 4 5 6 7 8 9 10 11 12 13 14 15 16 17 18 19
716
FTUS44 KBMX 241140
TAFTOI
TAF
KTOI 241140Z 2412/2512 12007G15KT P6SM OVC050
     FM241500 15013G19KT P6SM OVC050
     FM242300 14008KT P6SM BKN050=

USA.gov is the U.S. government's official web portal to all federal, state and local government web resources and services.